sensor_id;sensor_type;location;lat;lon;timestamp;P1;durP1;ratioP1;P2;durP2;ratioP2
12385;SDS011;6257;57.634;18.310;2022-08-04T00:00:04;3.30;;;2.07;;
12385;SDS011;6257;57.634;18.310;2022-08-04T00:02:36;5.03;;;2.10;;
12385;SDS011;6257;57.634;18.310;2022-08-04T00:05:15;4.20;;;2.20;;
12385;SDS011;6257;57.634;18.310;2022-08-04T00:07:52;4.53;;;2.17;;
12385;SDS011;6257;57.634;18.310;2022-08-04T00:10:27;4.80;;;2.37;;
12385;SDS011;6257;57.634;18.310;2022-08-04T00:12:57;6.43;;;2.10;;
12385;SDS011;6257;57.634;18.310;2022-08-04T00:15:25;4.80;;;2.20;;
12385;SDS011;6257;57.634;18.310;2022-08-04T00:17:59;6.43;;;2.30;;
12385;SDS011;6257;57.634;18.310;2022-08-04T00:20:29;5.63;;;1.97;;
12385;SDS011;6257;57.634;18.310;2022-08-04T00:22:57;5.97;;;2.33;;
12385;SDS011;6257;57.634;18.310;2022-08-04T00:25:25;4.40;;;2.20;;
12385;SDS011;6257;57.634;18.310;2022-08-04T00:27:53;4.83;;;2.07;;
12385;SDS011;6257;57.634;18.310;2022-08-04T00:30:22;6.37;;;2.53;;
12385;SDS011;6257;57.634;18.310;2022-08-04T00:32:50;6.43;;;2.63;;
12385;SDS011;6257;57.634;18.310;2022-08-04T00:35:18;4.23;;;2.40;;
12385;SDS011;6257;57.634;18.310;2022-08-04T00:37:45;4.00;;;2.50;;
12385;SDS011;6257;57.634;18.310;2022-08-04T00:40:16;4.30;;;2.63;;
12385;SDS011;6257;57.634;18.310;2022-08-04T00:42:53;5.43;;;2.87;;
12385;SDS011;6257;57.634;18.310;2022-08-04T00:45:35;6.97;;;2.80;;
12385;SDS011;6257;57.634;18.310;2022-08-04T00:48:36;4.57;;;2.60;;
12385;SDS011;6257;57.634;18.310;2022-08-04T00:51:25;10.83;;;2.97;;
12385;SDS011;6257;57.634;18.310;2022-08-04T00:54:05;6.17;;;3.10;;
12385;SDS011;6257;57.634;18.310;2022-08-04T00:56:43;5.73;;;3.10;;
12385;SDS011;6257;57.634;18.310;2022-08-04T00:59:28;8.37;;;2.90;;
12385;SDS011;6257;57.634;18.310;2022-08-04T01:02:12;5.83;;;2.80;;
12385;SDS011;6257;57.634;18.310;2022-08-04T01:04:55;4.33;;;2.50;;
12385;SDS011;6257;57.634;18.310;2022-08-04T01:10:21;6.37;;;3.20;;
12385;SDS011;6257;57.634;18.310;2022-08-04T01:13:07;8.17;;;3.50;;
12385;SDS011;6257;57.634;18.310;2022-08-04T01:15:47;7.33;;;3.30;;
12385;SDS011;6257;57.634;18.310;2022-08-04T01:18:24;6.33;;;3.27;;
12385;SDS011;6257;57.634;18.310;2022-08-04T01:21:02;6.03;;;3.00;;
12385;SDS011;6257;57.634;18.310;2022-08-04T01:23:46;8.77;;;3.40;;
12385;SDS011;6257;57.634;18.310;2022-08-04T01:29:21;6.00;;;3.27;;
12385;SDS011;6257;57.634;18.310;2022-08-04T01:31:52;9.50;;;3.30;;
12385;SDS011;6257;57.634;18.310;2022-08-04T01:34:26;10.27;;;3.37;;
12385;SDS011;6257;57.634;18.310;2022-08-04T01:36:59;5.80;;;3.50;;
12385;SDS011;6257;57.634;18.310;2022-08-04T01:39:34;8.03;;;3.60;;
12385;SDS011;6257;57.634;18.310;2022-08-04T01:42:05;4.27;;;3.20;;
12385;SDS011;6257;57.634;18.310;2022-08-04T01:44:36;8.50;;;3.47;;
12385;SDS011;6257;57.634;18.310;2022-08-04T01:47:05;6.77;;;3.40;;
12385;SDS011;6257;57.634;18.310;2022-08-04T01:49:33;6.53;;;3.30;;
12385;SDS011;6257;57.634;18.310;2022-08-04T01:52:02;6.50;;;3.37;;
12385;SDS011;6257;57.634;18.310;2022-08-04T01:54:36;8.37;;;3.67;;
12385;SDS011;6257;57.634;18.310;2022-08-04T01:57:06;6.47;;;3.70;;
12385;SDS011;6257;57.634;18.310;2022-08-04T01:59:37;10.40;;;4.10;;
12385;SDS011;6257;57.634;18.310;2022-08-04T02:02:05;6.60;;;3.97;;
12385;SDS011;6257;57.634;18.310;2022-08-04T02:04:34;8.80;;;4.10;;
12385;SDS011;6257;57.634;18.310;2022-08-04T02:07:05;7.50;;;3.60;;
12385;SDS011;6257;57.634;18.310;2022-08-04T02:09:42;6.37;;;4.00;;
12385;SDS011;6257;57.634;18.310;2022-08-04T02:12:15;6.50;;;3.57;;
12385;SDS011;6257;57.634;18.310;2022-08-04T02:14:55;7.07;;;3.70;;
12385;SDS011;6257;57.634;18.310;2022-08-04T02:17:26;5.50;;;3.53;;
12385;SDS011;6257;57.634;18.310;2022-08-04T02:20:07;6.50;;;3.67;;
12385;SDS011;6257;57.634;18.310;2022-08-04T02:22:39;9.10;;;4.17;;
12385;SDS011;6257;57.634;18.310;2022-08-04T02:25:13;7.50;;;4.03;;
12385;SDS011;6257;57.634;18.310;2022-08-04T02:27:55;7.83;;;4.30;;
12385;SDS011;6257;57.634;18.310;2022-08-04T02:30:32;10.70;;;4.50;;
12385;SDS011;6257;57.634;18.310;2022-08-04T02:33:09;7.70;;;4.10;;
12385;SDS011;6257;57.634;18.310;2022-08-04T02:35:39;7.70;;;3.87;;
12385;SDS011;6257;57.634;18.310;2022-08-04T02:38:15;9.23;;;4.37;;
12385;SDS011;6257;57.634;18.310;2022-08-04T02:40:49;8.37;;;4.30;;
12385;SDS011;6257;57.634;18.310;2022-08-04T02:43:19;7.27;;;4.80;;
12385;SDS011;6257;57.634;18.310;2022-08-04T02:45:49;9.47;;;4.30;;
12385;SDS011;6257;57.634;18.310;2022-08-04T02:48:21;8.63;;;4.63;;
12385;SDS011;6257;57.634;18.310;2022-08-04T02:50:50;6.20;;;4.40;;
12385;SDS011;6257;57.634;18.310;2022-08-04T02:53:20;10.27;;;4.70;;
12385;SDS011;6257;57.634;18.310;2022-08-04T02:55:48;8.03;;;4.43;;
12385;SDS011;6257;57.634;18.310;2022-08-04T02:58:19;11.10;;;4.20;;
12385;SDS011;6257;57.634;18.310;2022-08-04T03:00:49;10.43;;;4.93;;
12385;SDS011;6257;57.634;18.310;2022-08-04T03:03:20;5.83;;;4.00;;
12385;SDS011;6257;57.634;18.310;2022-08-04T03:05:57;5.97;;;4.23;;
12385;SDS011;6257;57.634;18.310;2022-08-04T03:23:41;9.60;;;4.60;;
12385;SDS011;6257;57.634;18.310;2022-08-04T03:26:59;6.80;;;4.23;;
12385;SDS011;6257;57.634;18.310;2022-08-04T03:33:02;7.33;;;4.33;;
12385;SDS011;6257;57.634;18.310;2022-08-04T03:39:01;10.53;;;4.57;;
12385;SDS011;6257;57.634;18.310;2022-08-04T03:51:11;7.23;;;4.10;;
12385;SDS011;6257;57.634;18.310;2022-08-04T03:57:13;7.77;;;4.43;;
12385;SDS011;6257;57.634;18.310;2022-08-04T04:00:04;7.03;;;4.33;;
12385;SDS011;6257;57.634;18.310;2022-08-04T04:05:47;7.70;;;4.83;;
12385;SDS011;6257;57.634;18.310;2022-08-04T04:08:45;5.67;;;4.23;;
12385;SDS011;6257;57.634;18.310;2022-08-04T04:11:29;6.23;;;4.13;;
12385;SDS011;6257;57.634;18.310;2022-08-04T04:14:17;8.67;;;4.50;;
12385;SDS011;6257;57.634;18.310;2022-08-04T04:20:01;9.10;;;4.07;;
12385;SDS011;6257;57.634;18.310;2022-08-04T04:25:35;7.20;;;4.23;;
12385;SDS011;6257;57.634;18.310;2022-08-04T04:28:23;10.10;;;4.20;;
12385;SDS011;6257;57.634;18.310;2022-08-04T04:31:09;8.57;;;4.20;;
12385;SDS011;6257;57.634;18.310;2022-08-04T04:34:05;5.63;;;3.80;;
12385;SDS011;6257;57.634;18.310;2022-08-04T04:36:43;8.23;;;3.90;;
12385;SDS011;6257;57.634;18.310;2022-08-04T04:39:24;7.30;;;3.80;;
12385;SDS011;6257;57.634;18.310;2022-08-04T04:42:04;6.47;;;3.60;;
12385;SDS011;6257;57.634;18.310;2022-08-04T04:44:54;6.40;;;3.50;;
12385;SDS011;6257;57.634;18.310;2022-08-04T04:47:38;6.47;;;3.70;;
12385;SDS011;6257;57.634;18.310;2022-08-04T04:50:13;6.90;;;3.63;;
12385;SDS011;6257;57.634;18.310;2022-08-04T04:52:46;8.67;;;3.73;;
12385;SDS011;6257;57.634;18.310;2022-08-04T04:55:21;4.53;;;3.77;;
12385;SDS011;6257;57.634;18.310;2022-08-04T04:57:52;7.17;;;3.90;;
12385;SDS011;6257;57.634;18.310;2022-08-04T05:00:23;8.33;;;3.93;;
12385;SDS011;6257;57.634;18.310;2022-08-04T05:03:08;7.33;;;3.60;;
12385;SDS011;6257;57.634;18.310;2022-08-04T05:05:59;5.10;;;3.63;;
12385;SDS011;6257;57.634;18.310;2022-08-04T05:08:48;4.90;;;3.40;;
12385;SDS011;6257;57.634;18.310;2022-08-04T05:11:44;7.80;;;3.47;;
12385;SDS011;6257;57.634;18.310;2022-08-04T05:14:29;6.50;;;3.53;;
12385;SDS011;6257;57.634;18.310;2022-08-04T05:17:01;5.43;;;3.30;;
12385;SDS011;6257;57.634;18.310;2022-08-04T05:19:33;5.10;;;3.60;;
12385;SDS011;6257;57.634;18.310;2022-08-04T05:22:10;5.73;;;3.57;;
12385;SDS011;6257;57.634;18.310;2022-08-04T05:24:44;7.57;;;3.60;;
12385;SDS011;6257;57.634;18.310;2022-08-04T05:27:15;6.40;;;3.27;;
12385;SDS011;6257;57.634;18.310;2022-08-04T05:29:49;8.03;;;3.67;;
12385;SDS011;6257;57.634;18.310;2022-08-04T05:32:19;6.43;;;3.47;;
12385;SDS011;6257;57.634;18.310;2022-08-04T05:34:53;6.83;;;3.73;;
12385;SDS011;6257;57.634;18.310;2022-08-04T05:37:24;6.73;;;3.23;;
12385;SDS011;6257;57.634;18.310;2022-08-04T05:39:55;6.43;;;3.67;;
12385;SDS011;6257;57.634;18.310;2022-08-04T05:42:25;6.23;;;3.70;;
12385;SDS011;6257;57.634;18.310;2022-08-04T05:44:53;7.27;;;3.30;;
12385;SDS011;6257;57.634;18.310;2022-08-04T05:47:21;5.00;;;3.23;;
12385;SDS011;6257;57.634;18.310;2022-08-04T05:49:50;7.37;;;3.73;;
12385;SDS011;6257;57.634;18.310;2022-08-04T05:52:17;5.30;;;3.30;;
12385;SDS011;6257;57.634;18.310;2022-08-04T05:54:45;5.33;;;3.60;;
12385;SDS011;6257;57.634;18.310;2022-08-04T05:57:14;7.83;;;3.40;;
12385;SDS011;6257;57.634;18.310;2022-08-04T05:59:43;5.47;;;3.20;;
12385;SDS011;6257;57.634;18.310;2022-08-04T06:02:11;9.30;;;3.70;;
12385;SDS011;6257;57.634;18.310;2022-08-04T06:04:42;5.70;;;3.10;;
12385;SDS011;6257;57.634;18.310;2022-08-04T06:07:14;5.27;;;3.23;;
12385;SDS011;6257;57.634;18.310;2022-08-04T06:09:41;5.30;;;3.40;;
12385;SDS011;6257;57.634;18.310;2022-08-04T06:12:10;7.83;;;3.83;;
12385;SDS011;6257;57.634;18.310;2022-08-04T06:14:46;5.73;;;3.50;;
12385;SDS011;6257;57.634;18.310;2022-08-04T06:17:21;6.83;;;3.60;;
12385;SDS011;6257;57.634;18.310;2022-08-04T06:19:51;6.07;;;3.47;;
12385;SDS011;6257;57.634;18.310;2022-08-04T06:22:20;7.07;;;3.50;;
12385;SDS011;6257;57.634;18.310;2022-08-04T06:24:48;5.33;;;3.50;;
12385;SDS011;6257;57.634;18.310;2022-08-04T06:27:17;8.03;;;3.80;;
12385;SDS011;6257;57.634;18.310;2022-08-04T06:29:46;7.33;;;3.60;;
12385;SDS011;6257;57.634;18.310;2022-08-04T06:32:14;6.37;;;3.40;;
12385;SDS011;6257;57.634;18.310;2022-08-04T06:34:55;5.67;;;3.63;;
12385;SDS011;6257;57.634;18.310;2022-08-04T06:37:25;6.47;;;3.30;;
12385;SDS011;6257;57.634;18.310;2022-08-04T06:39:53;7.33;;;3.70;;
12385;SDS011;6257;57.634;18.310;2022-08-04T06:42:22;6.97;;;3.70;;
12385;SDS011;6257;57.634;18.310;2022-08-04T06:44:53;7.73;;;3.20;;
12385;SDS011;6257;57.634;18.310;2022-08-04T06:47:23;6.17;;;3.70;;
12385;SDS011;6257;57.634;18.310;2022-08-04T06:49:51;7.17;;;4.17;;
12385;SDS011;6257;57.634;18.310;2022-08-04T06:52:20;5.07;;;3.30;;
12385;SDS011;6257;57.634;18.310;2022-08-04T06:54:48;7.10;;;3.30;;
12385;SDS011;6257;57.634;18.310;2022-08-04T06:57:17;7.33;;;4.20;;
12385;SDS011;6257;57.634;18.310;2022-08-04T06:59:50;8.03;;;3.90;;
12385;SDS011;6257;57.634;18.310;2022-08-04T07:02:23;7.97;;;3.80;;
12385;SDS011;6257;57.634;18.310;2022-08-04T07:04:52;7.03;;;3.70;;
12385;SDS011;6257;57.634;18.310;2022-08-04T07:07:20;5.60;;;3.33;;
12385;SDS011;6257;57.634;18.310;2022-08-04T07:09:49;6.30;;;3.30;;
12385;SDS011;6257;57.634;18.310;2022-08-04T07:12:16;5.00;;;3.53;;
12385;SDS011;6257;57.634;18.310;2022-08-04T07:14:45;6.17;;;3.17;;
12385;SDS011;6257;57.634;18.310;2022-08-04T07:17:15;6.97;;;3.10;;
12385;SDS011;6257;57.634;18.310;2022-08-04T07:19:43;6.23;;;3.40;;
12385;SDS011;6257;57.634;18.310;2022-08-04T07:22:13;6.63;;;3.10;;
12385;SDS011;6257;57.634;18.310;2022-08-04T07:24:41;5.13;;;3.53;;
12385;SDS011;6257;57.634;18.310;2022-08-04T07:27:08;6.43;;;3.20;;
12385;SDS011;6257;57.634;18.310;2022-08-04T07:29:35;7.33;;;3.53;;
12385;SDS011;6257;57.634;18.310;2022-08-04T07:32:03;5.33;;;3.40;;
12385;SDS011;6257;57.634;18.310;2022-08-04T07:34:32;8.87;;;2.70;;
12385;SDS011;6257;57.634;18.310;2022-08-04T07:37:02;6.60;;;3.03;;
12385;SDS011;6257;57.634;18.310;2022-08-04T07:39:29;6.67;;;2.93;;
12385;SDS011;6257;57.634;18.310;2022-08-04T07:41:58;9.17;;;2.70;;
12385;SDS011;6257;57.634;18.310;2022-08-04T07:44:27;6.33;;;2.90;;
12385;SDS011;6257;57.634;18.310;2022-08-04T07:46:55;5.40;;;2.40;;
12385;SDS011;6257;57.634;18.310;2022-08-04T07:49:22;5.57;;;2.67;;
12385;SDS011;6257;57.634;18.310;2022-08-04T07:51:52;9.50;;;2.50;;
12385;SDS011;6257;57.634;18.310;2022-08-04T07:54:20;6.23;;;2.53;;
12385;SDS011;6257;57.634;18.310;2022-08-04T07:56:47;5.57;;;2.83;;
12385;SDS011;6257;57.634;18.310;2022-08-04T07:59:16;7.90;;;2.83;;
12385;SDS011;6257;57.634;18.310;2022-08-04T08:01:43;6.43;;;2.60;;
12385;SDS011;6257;57.634;18.310;2022-08-04T08:04:12;9.60;;;2.80;;
12385;SDS011;6257;57.634;18.310;2022-08-04T08:06:40;7.27;;;2.93;;
12385;SDS011;6257;57.634;18.310;2022-08-04T08:09:10;6.80;;;2.80;;
12385;SDS011;6257;57.634;18.310;2022-08-04T08:11:38;6.50;;;3.10;;
12385;SDS011;6257;57.634;18.310;2022-08-04T08:14:06;8.47;;;3.37;;
12385;SDS011;6257;57.634;18.310;2022-08-04T08:16:33;10.10;;;3.60;;
12385;SDS011;6257;57.634;18.310;2022-08-04T08:19:01;5.37;;;2.93;;
12385;SDS011;6257;57.634;18.310;2022-08-04T08:21:28;7.93;;;3.20;;
12385;SDS011;6257;57.634;18.310;2022-08-04T08:23:57;9.73;;;3.50;;
12385;SDS011;6257;57.634;18.310;2022-08-04T08:26:26;7.37;;;3.30;;
12385;SDS011;6257;57.634;18.310;2022-08-04T08:28:55;7.67;;;3.13;;
12385;SDS011;6257;57.634;18.310;2022-08-04T08:31:22;8.63;;;3.23;;
12385;SDS011;6257;57.634;18.310;2022-08-04T08:33:50;6.07;;;2.50;;
12385;SDS011;6257;57.634;18.310;2022-08-04T08:36:20;6.83;;;2.90;;
12385;SDS011;6257;57.634;18.310;2022-08-04T08:38:54;9.40;;;3.23;;
12385;SDS011;6257;57.634;18.310;2022-08-04T08:41:50;5.30;;;2.93;;
12385;SDS011;6257;57.634;18.310;2022-08-04T08:47:42;5.33;;;2.90;;
12385;SDS011;6257;57.634;18.310;2022-08-04T08:56:25;5.97;;;2.57;;
12385;SDS011;6257;57.634;18.310;2022-08-04T08:59:05;7.13;;;2.60;;
12385;SDS011;6257;57.634;18.310;2022-08-04T09:01:48;6.47;;;3.00;;
12385;SDS011;6257;57.634;18.310;2022-08-04T09:04:31;7.27;;;3.00;;
12385;SDS011;6257;57.634;18.310;2022-08-04T09:10:23;6.80;;;2.53;;
12385;SDS011;6257;57.634;18.310;2022-08-04T09:12:55;9.57;;;2.80;;
12385;SDS011;6257;57.634;18.310;2022-08-04T09:15:28;6.50;;;2.87;;
12385;SDS011;6257;57.634;18.310;2022-08-04T09:18:01;8.10;;;3.00;;
12385;SDS011;6257;57.634;18.310;2022-08-04T09:20:34;7.80;;;3.00;;
12385;SDS011;6257;57.634;18.310;2022-08-04T09:23:07;5.27;;;2.80;;
12385;SDS011;6257;57.634;18.310;2022-08-04T09:25:41;8.87;;;3.63;;
12385;SDS011;6257;57.634;18.310;2022-08-04T09:28:21;7.80;;;3.23;;
12385;SDS011;6257;57.634;18.310;2022-08-04T09:30:53;7.37;;;3.23;;
12385;SDS011;6257;57.634;18.310;2022-08-04T09:33:27;7.30;;;3.40;;
12385;SDS011;6257;57.634;18.310;2022-08-04T09:36:09;7.80;;;3.50;;
12385;SDS011;6257;57.634;18.310;2022-08-04T09:38:48;9.17;;;3.10;;
12385;SDS011;6257;57.634;18.310;2022-08-04T09:41:28;7.87;;;3.23;;
12385;SDS011;6257;57.634;18.310;2022-08-04T09:44:06;7.60;;;3.10;;
12385;SDS011;6257;57.634;18.310;2022-08-04T09:46:43;5.23;;;2.67;;
12385;SDS011;6257;57.634;18.310;2022-08-04T09:49:17;7.07;;;2.60;;
12385;SDS011;6257;57.634;18.310;2022-08-04T09:51:51;6.40;;;2.73;;
12385;SDS011;6257;57.634;18.310;2022-08-04T09:54:30;9.03;;;2.80;;
12385;SDS011;6257;57.634;18.310;2022-08-04T09:57:06;6.70;;;2.80;;
12385;SDS011;6257;57.634;18.310;2022-08-04T09:59:42;6.80;;;2.50;;
12385;SDS011;6257;57.634;18.310;2022-08-04T10:02:16;5.50;;;2.77;;
12385;SDS011;6257;57.634;18.310;2022-08-04T10:04:46;5.60;;;2.90;;
12385;SDS011;6257;57.634;18.310;2022-08-04T10:07:35;8.67;;;2.70;;
12385;SDS011;6257;57.634;18.310;2022-08-04T10:10:26;5.63;;;2.63;;
12385;SDS011;6257;57.634;18.310;2022-08-04T10:13:08;6.57;;;3.00;;
12385;SDS011;6257;57.634;18.310;2022-08-04T10:16:05;5.23;;;2.70;;
12385;SDS011;6257;57.634;18.310;2022-08-04T10:18:44;6.80;;;2.60;;
12385;SDS011;6257;57.634;18.310;2022-08-04T10:21:22;5.83;;;2.97;;
12385;SDS011;6257;57.634;18.310;2022-08-04T10:24:16;8.20;;;2.87;;
12385;SDS011;6257;57.634;18.310;2022-08-04T10:26:57;6.90;;;2.57;;
12385;SDS011;6257;57.634;18.310;2022-08-04T10:29:35;9.93;;;2.90;;
12385;SDS011;6257;57.634;18.310;2022-08-04T10:32:07;10.47;;;3.10;;
12385;SDS011;6257;57.634;18.310;2022-08-04T10:34:40;6.87;;;2.30;;
12385;SDS011;6257;57.634;18.310;2022-08-04T10:37:17;7.33;;;2.83;;
12385;SDS011;6257;57.634;18.310;2022-08-04T10:39:51;7.70;;;2.97;;
12385;SDS011;6257;57.634;18.310;2022-08-04T10:42:39;6.63;;;2.70;;
12385;SDS011;6257;57.634;18.310;2022-08-04T10:45:15;8.63;;;2.50;;
12385;SDS011;6257;57.634;18.310;2022-08-04T10:47:50;5.33;;;2.70;;
12385;SDS011;6257;57.634;18.310;2022-08-04T10:50:24;6.07;;;2.57;;
12385;SDS011;6257;57.634;18.310;2022-08-04T10:52:54;4.73;;;2.70;;
12385;SDS011;6257;57.634;18.310;2022-08-04T10:55:27;4.47;;;2.90;;
12385;SDS011;6257;57.634;18.310;2022-08-04T10:58:00;5.20;;;2.67;;
12385;SDS011;6257;57.634;18.310;2022-08-04T11:00:30;9.40;;;2.67;;
12385;SDS011;6257;57.634;18.310;2022-08-04T11:03:04;7.13;;;2.80;;
12385;SDS011;6257;57.634;18.310;2022-08-04T11:05:36;8.73;;;3.10;;
12385;SDS011;6257;57.634;18.310;2022-08-04T11:08:08;5.30;;;2.40;;
12385;SDS011;6257;57.634;18.310;2022-08-04T11:10:39;5.80;;;2.70;;
12385;SDS011;6257;57.634;18.310;2022-08-04T11:13:10;6.27;;;2.70;;
12385;SDS011;6257;57.634;18.310;2022-08-04T11:15:44;10.87;;;3.10;;
12385;SDS011;6257;57.634;18.310;2022-08-04T11:18:17;5.37;;;2.50;;
12385;SDS011;6257;57.634;18.310;2022-08-04T11:20:52;10.77;;;2.70;;
12385;SDS011;6257;57.634;18.310;2022-08-04T11:23:25;5.37;;;2.30;;
12385;SDS011;6257;57.634;18.310;2022-08-04T11:25:58;7.90;;;3.03;;
12385;SDS011;6257;57.634;18.310;2022-08-04T11:28:34;8.33;;;2.60;;
12385;SDS011;6257;57.634;18.310;2022-08-04T11:31:10;5.67;;;2.60;;
12385;SDS011;6257;57.634;18.310;2022-08-04T11:33:40;5.20;;;2.60;;
12385;SDS011;6257;57.634;18.310;2022-08-04T11:36:15;6.50;;;2.83;;
12385;SDS011;6257;57.634;18.310;2022-08-04T11:38:49;8.60;;;2.93;;
12385;SDS011;6257;57.634;18.310;2022-08-04T11:41:25;5.60;;;2.87;;
12385;SDS011;6257;57.634;18.310;2022-08-04T11:44:04;5.10;;;2.40;;
12385;SDS011;6257;57.634;18.310;2022-08-04T11:46:34;6.53;;;2.80;;
12385;SDS011;6257;57.634;18.310;2022-08-04T11:49:06;6.03;;;2.40;;
12385;SDS011;6257;57.634;18.310;2022-08-04T11:51:38;5.27;;;2.60;;
12385;SDS011;6257;57.634;18.310;2022-08-04T11:54:08;6.40;;;2.60;;
12385;SDS011;6257;57.634;18.310;2022-08-04T11:56:37;7.00;;;2.67;;
12385;SDS011;6257;57.634;18.310;2022-08-04T11:59:05;7.30;;;2.23;;
12385;SDS011;6257;57.634;18.310;2022-08-04T12:01:34;3.83;;;2.40;;
12385;SDS011;6257;57.634;18.310;2022-08-04T12:04:13;5.67;;;2.90;;
12385;SDS011;6257;57.634;18.310;2022-08-04T12:06:47;8.63;;;2.53;;
12385;SDS011;6257;57.634;18.310;2022-08-04T12:09:21;8.07;;;2.27;;
12385;SDS011;6257;57.634;18.310;2022-08-04T12:11:59;8.97;;;2.80;;
12385;SDS011;6257;57.634;18.310;2022-08-04T12:14:36;9.20;;;2.47;;
12385;SDS011;6257;57.634;18.310;2022-08-04T12:17:08;9.33;;;2.50;;
12385;SDS011;6257;57.634;18.310;2022-08-04T12:19:38;6.67;;;2.33;;
12385;SDS011;6257;57.634;18.310;2022-08-04T12:22:13;7.17;;;2.70;;
12385;SDS011;6257;57.634;18.310;2022-08-04T12:24:44;4.63;;;2.33;;
12385;SDS011;6257;57.634;18.310;2022-08-04T12:27:15;8.17;;;2.60;;
12385;SDS011;6257;57.634;18.310;2022-08-04T12:29:45;5.53;;;2.47;;
12385;SDS011;6257;57.634;18.310;2022-08-04T12:32:17;5.70;;;2.73;;
12385;SDS011;6257;57.634;18.310;2022-08-04T12:34:49;9.70;;;3.00;;
12385;SDS011;6257;57.634;18.310;2022-08-04T12:37:27;4.10;;;2.50;;
12385;SDS011;6257;57.634;18.310;2022-08-04T12:40:02;8.53;;;2.60;;
12385;SDS011;6257;57.634;18.310;2022-08-04T12:42:35;5.03;;;2.60;;
12385;SDS011;6257;57.634;18.310;2022-08-04T12:45:10;7.20;;;2.70;;
12385;SDS011;6257;57.634;18.310;2022-08-04T12:47:38;6.83;;;2.50;;
12385;SDS011;6257;57.634;18.310;2022-08-04T12:50:06;6.13;;;2.80;;
12385;SDS011;6257;57.634;18.310;2022-08-04T12:52:42;9.50;;;2.60;;
12385;SDS011;6257;57.634;18.310;2022-08-04T12:55:11;5.73;;;2.87;;
12385;SDS011;6257;57.634;18.310;2022-08-04T12:57:40;5.90;;;2.70;;
12385;SDS011;6257;57.634;18.310;2022-08-04T13:00:09;5.20;;;2.80;;
12385;SDS011;6257;57.634;18.310;2022-08-04T13:02:38;5.97;;;2.70;;
12385;SDS011;6257;57.634;18.310;2022-08-04T13:05:08;8.17;;;2.73;;
12385;SDS011;6257;57.634;18.310;2022-08-04T13:07:41;7.03;;;2.90;;
12385;SDS011;6257;57.634;18.310;2022-08-04T13:10:15;4.93;;;2.60;;
12385;SDS011;6257;57.634;18.310;2022-08-04T13:12:48;4.53;;;2.47;;
12385;SDS011;6257;57.634;18.310;2022-08-04T13:15:19;7.70;;;2.90;;
12385;SDS011;6257;57.634;18.310;2022-08-04T13:17:49;5.33;;;3.03;;
12385;SDS011;6257;57.634;18.310;2022-08-04T13:20:23;4.97;;;3.00;;
12385;SDS011;6257;57.634;18.310;2022-08-04T13:22:57;3.70;;;2.83;;
12385;SDS011;6257;57.634;18.310;2022-08-04T13:25:27;3.17;;;2.60;;
12385;SDS011;6257;57.634;18.310;2022-08-04T13:27:55;5.00;;;3.00;;
12385;SDS011;6257;57.634;18.310;2022-08-04T13:30:23;6.63;;;3.20;;
12385;SDS011;6257;57.634;18.310;2022-08-04T13:32:52;4.73;;;2.53;;
12385;SDS011;6257;57.634;18.310;2022-08-04T13:35:22;3.90;;;2.57;;
12385;SDS011;6257;57.634;18.310;2022-08-04T13:37:51;7.00;;;3.00;;
12385;SDS011;6257;57.634;18.310;2022-08-04T13:40:22;6.37;;;3.10;;
12385;SDS011;6257;57.634;18.310;2022-08-04T13:42:51;4.27;;;2.90;;
12385;SDS011;6257;57.634;18.310;2022-08-04T13:45:20;6.87;;;2.70;;
12385;SDS011;6257;57.634;18.310;2022-08-04T13:47:48;6.30;;;2.73;;
12385;SDS011;6257;57.634;18.310;2022-08-04T13:50:19;5.33;;;3.20;;
12385;SDS011;6257;57.634;18.310;2022-08-04T13:52:49;7.23;;;3.17;;
12385;SDS011;6257;57.634;18.310;2022-08-04T13:55:23;4.10;;;2.60;;
12385;SDS011;6257;57.634;18.310;2022-08-04T13:57:56;5.40;;;3.00;;
12385;SDS011;6257;57.634;18.310;2022-08-04T14:00:36;5.27;;;2.93;;
12385;SDS011;6257;57.634;18.310;2022-08-04T14:03:07;4.80;;;2.47;;
12385;SDS011;6257;57.634;18.310;2022-08-04T14:05:37;4.93;;;3.23;;
12385;SDS011;6257;57.634;18.310;2022-08-04T14:08:11;5.33;;;3.27;;
12385;SDS011;6257;57.634;18.310;2022-08-04T14:10:51;4.80;;;3.13;;
12385;SDS011;6257;57.634;18.310;2022-08-04T14:13:27;7.73;;;3.50;;
12385;SDS011;6257;57.634;18.310;2022-08-04T14:15:56;4.40;;;2.90;;
12385;SDS011;6257;57.634;18.310;2022-08-04T14:18:24;5.57;;;2.80;;
12385;SDS011;6257;57.634;18.310;2022-08-04T14:21:03;4.27;;;2.53;;
12385;SDS011;6257;57.634;18.310;2022-08-04T14:23:42;5.30;;;2.60;;
12385;SDS011;6257;57.634;18.310;2022-08-04T14:26:20;4.83;;;2.73;;
12385;SDS011;6257;57.634;18.310;2022-08-04T14:28:49;5.07;;;2.80;;
12385;SDS011;6257;57.634;18.310;2022-08-04T14:31:18;3.97;;;2.67;;
12385;SDS011;6257;57.634;18.310;2022-08-04T14:33:47;4.90;;;3.40;;
12385;SDS011;6257;57.634;18.310;2022-08-04T14:36:15;4.03;;;2.90;;
12385;SDS011;6257;57.634;18.310;2022-08-04T14:38:44;3.97;;;3.13;;
12385;SDS011;6257;57.634;18.310;2022-08-04T14:41:14;6.30;;;3.10;;
12385;SDS011;6257;57.634;18.310;2022-08-04T14:43:45;5.43;;;2.90;;
12385;SDS011;6257;57.634;18.310;2022-08-04T14:46:13;4.77;;;2.90;;
12385;SDS011;6257;57.634;18.310;2022-08-04T14:51:34;4.77;;;3.27;;
12385;SDS011;6257;57.634;18.310;2022-08-04T14:54:02;4.60;;;3.23;;
12385;SDS011;6257;57.634;18.310;2022-08-04T14:56:30;3.83;;;3.43;;
12385;SDS011;6257;57.634;18.310;2022-08-04T14:59:00;7.37;;;3.53;;
12385;SDS011;6257;57.634;18.310;2022-08-04T15:01:31;4.70;;;3.53;;
12385;SDS011;6257;57.634;18.310;2022-08-04T15:03:59;7.63;;;3.70;;
12385;SDS011;6257;57.634;18.310;2022-08-04T15:06:28;5.27;;;3.33;;
12385;SDS011;6257;57.634;18.310;2022-08-04T15:08:58;3.77;;;3.27;;
12385;SDS011;6257;57.634;18.310;2022-08-04T15:11:27;5.53;;;3.30;;
12385;SDS011;6257;57.634;18.310;2022-08-04T15:13:56;4.73;;;3.70;;
12385;SDS011;6257;57.634;18.310;2022-08-04T15:16:25;5.53;;;3.37;;
12385;SDS011;6257;57.634;18.310;2022-08-04T15:18:54;4.73;;;3.20;;
12385;SDS011;6257;57.634;18.310;2022-08-04T15:21:22;3.80;;;3.47;;
12385;SDS011;6257;57.634;18.310;2022-08-04T15:23:50;5.50;;;3.37;;
12385;SDS011;6257;57.634;18.310;2022-08-04T15:26:18;3.80;;;3.40;;
12385;SDS011;6257;57.634;18.310;2022-08-04T15:28:51;4.47;;;3.47;;
12385;SDS011;6257;57.634;18.310;2022-08-04T15:31:24;3.67;;;3.37;;
12385;SDS011;6257;57.634;18.310;2022-08-04T15:33:53;6.13;;;3.40;;
12385;SDS011;6257;57.634;18.310;2022-08-04T15:36:25;5.53;;;3.30;;
12385;SDS011;6257;57.634;18.310;2022-08-04T15:39:02;3.47;;;3.20;;
12385;SDS011;6257;57.634;18.310;2022-08-04T15:41:35;4.23;;;3.57;;
12385;SDS011;6257;57.634;18.310;2022-08-04T15:47:28;7.00;;;3.40;;
12385;SDS011;6257;57.634;18.310;2022-08-04T15:50:06;9.33;;;3.57;;
12385;SDS011;6257;57.634;18.310;2022-08-04T15:55:32;3.70;;;3.40;;
12385;SDS011;6257;57.634;18.310;2022-08-04T15:58:00;5.33;;;3.17;;
12385;SDS011;6257;57.634;18.310;2022-08-04T16:03:41;5.87;;;3.30;;
12385;SDS011;6257;57.634;18.310;2022-08-04T16:09:25;7.90;;;3.87;;
12385;SDS011;6257;57.634;18.310;2022-08-04T16:11:52;6.40;;;3.60;;
12385;SDS011;6257;57.634;18.310;2022-08-04T16:14:32;5.37;;;3.60;;
12385;SDS011;6257;57.634;18.310;2022-08-04T16:17:16;6.13;;;3.40;;
12385;SDS011;6257;57.634;18.310;2022-08-04T16:19:48;4.97;;;3.67;;
12385;SDS011;6257;57.634;18.310;2022-08-04T16:22:31;5.80;;;3.53;;
12385;SDS011;6257;57.634;18.310;2022-08-04T16:25:00;6.07;;;4.20;;
12385;SDS011;6257;57.634;18.310;2022-08-04T16:27:38;4.47;;;3.27;;
12385;SDS011;6257;57.634;18.310;2022-08-04T16:30:07;3.60;;;3.30;;
12385;SDS011;6257;57.634;18.310;2022-08-04T16:32:40;5.27;;;3.20;;
12385;SDS011;6257;57.634;18.310;2022-08-04T16:35:23;3.83;;;3.50;;
12385;SDS011;6257;57.634;18.310;2022-08-04T16:38:09;4.43;;;3.60;;
12385;SDS011;6257;57.634;18.310;2022-08-04T16:40:38;4.23;;;3.73;;
12385;SDS011;6257;57.634;18.310;2022-08-04T16:43:09;3.97;;;3.57;;